ADDS METAR Data INFO
IDs: Format: Raw Decoded Include TAF

Data at: 0217 UTC 14 Dec 2017

KBQK 140155Z AUTO 22005KT 10SM CLR 07/00 A2999 RMK AO2
KBQK 140135Z AUTO 23005KT 10SM CLR 06/00 A3000 RMK AO2
KBQK 140115Z AUTO 23005KT 10SM CLR 05/00 A3000 RMK AO2
KBQK 140055Z AUTO 22004KT 10SM CLR 07/M01 A3000 RMK AO2
KBQK 140035Z AUTO 22004KT 10SM CLR 06/00 A3000 RMK AO2
KBQK 140015Z AUTO 23004KT 10SM CLR 06/00 A3001 RMK AO2
KBQK 132355Z AUTO 22004KT 10SM CLR 06/00 A3001 RMK AO2
KBQK 132335Z AUTO 00000KT 10SM CLR 06/00 A3000 RMK AO2
KBQK 132315Z AUTO 00000KT 10SM CLR 06/00 A3000 RMK AO2
KBQK 132255Z AUTO 00000KT 10SM CLR 08/M01 A3001 RMK AO2
KBQK 132235Z AUTO 24003KT 10SM CLR 10/M03 A3001 RMK AO2
KBQK 132215Z AUTO 24005KT 10SM CLR 10/M04 A3002 RMK AO2
KBQK 132155Z AUTO 25006KT 10SM CLR 11/M05 A3002 RMK AO2
KBQK 132135Z AUTO 24008KT 10SM CLR 12/M05 A3001 RMK AO2
KBQK 132115Z AUTO 25008KT 10SM CLR 12/M06 A3000 RMK AO2
KBQK 132055Z AUTO 24005KT 10SM CLR 12/M06 A3000 RMK AO2
KBQK 132035Z AUTO 24009KT 10SM CLR 12/M06 A3000 RMK AO2
KBQK 132015Z AUTO 26007KT 220V280 10SM CLR 12/M05 A3001 RMK AO2
KBQK 131955Z AUTO 25006KT 10SM CLR 12/M05 A3003 RMK AO2
KBQK 131935Z AUTO 22005KT 10SM CLR 11/M06 A3003 RMK AO2
KBQK 131915Z AUTO 30004KT 10SM CLR 11/M06 A3004 RMK AO2
KBQK 131855Z AUTO 25005KT 10SM CLR 11/M06 A3004 RMK AO2
KBQK 131835Z AUTO 25008KT 10SM CLR 11/M05 A3005 RMK AO2
KBQK 131815Z AUTO 24005KT 10SM CLR 10/M05 A3006 RMK AO2
KBQK 131755Z AUTO 26008KT 10SM CLR 10/M05 A3007 RMK AO2
KBQK 131735Z AUTO 28007KT 220V290 10SM CLR 09/M07 A3008 RMK AO2
KBQK 131715Z AUTO 26005KT 240V320 10SM CLR 08/M06 A3009 RMK AO2
KBQK 131655Z AUTO 35003KT 10SM CLR 08/M07 A3010 RMK AO2
KBQK 131635Z AUTO 00000KT 10SM CLR 08/M07 A3011 RMK AO2
KBQK 131615Z AUTO 30003KT 10SM CLR 07/M07 A3012 RMK AO2
KBQK 131555Z AUTO 27006KT 10SM CLR 07/M07 A3013 RMK AO2
KBQK 131535Z AUTO 29004KT 10SM CLR 06/M06 A3013 RMK AO2
KBQK 131515Z AUTO 30007KT 10SM CLR 06/M06 A3013 RMK AO2
KBQK 131455Z AUTO 29006KT 10SM CLR 06/M06 A3013 RMK AO2
KBQK 131435Z AUTO 32004KT 10SM CLR 05/M05 A3012 RMK AO2
KBQK 131415Z AUTO 31006KT 10SM CLR 05/M03 A3012 RMK AO2
KBQK 131355Z AUTO 31007KT 10SM CLR 04/M03 A3011 RMK AO2
KBQK 131335Z AUTO 31004KT 10SM CLR 03/M02 A3011 RMK AO2
KBQK 131315Z AUTO 29004KT 10SM CLR 03/M02 A3010 RMK AO2
KBQK 131255Z AUTO 28004KT 10SM CLR 02/M02 A3009 RMK AO2
KBQK 131235Z AUTO 00000KT 10SM CLR 02/M02 A3008 RMK AO2
KBQK 131215Z AUTO 28004KT 10SM CLR 02/M02 A3007 RMK AO2
KBQK 131155Z AUTO 00000KT 10SM CLR 02/M02 A3006 RMK AO2
KBQK 131135Z AUTO 30004KT 10SM CLR 03/M02 A3005 RMK AO2
KBQK 131115Z AUTO 32004KT 10SM CLR 03/M02 A3003 RMK AO2
KBQK 131055Z AUTO 31004KT 10SM CLR 03/M02 A3003 RMK AO2
KBQK 131035Z AUTO 30005KT 10SM CLR 03/M01 A3002 RMK AO2
KBQK 131015Z AUTO 29004KT 10SM CLR 03/M01 A3002 RMK AO2
KBQK 130955Z AUTO 30007KT 10SM CLR 03/00 A3001 RMK AO2
KBQK 130935Z AUTO 29004KT 10SM CLR 03/00 A3001 RMK AO2
KBQK 130915Z AUTO 28005KT 10SM CLR 03/00 A3001 RMK AO2
KBQK 130855Z AUTO 29005KT 10SM CLR 04/00 A3000 RMK AO2
KBQK 130835Z AUTO 28005KT 10SM CLR 05/00 A3000 RMK AO2
KBQK 130815Z AUTO 28005KT 10SM CLR 05/00 A3000 RMK AO2
KBQK 130755Z AUTO 29003KT 10SM CLR 05/00 A2999 RMK AO2
KBQK 130735Z AUTO 28007KT 10SM CLR 06/00 A2999 RMK AO2
KBQK 130715Z AUTO 28006KT 10SM CLR 06/00 A2998 RMK AO2
KBQK 130655Z AUTO 26007KT 10SM CLR 06/00 A2998 RMK AO2
KBQK 130635Z AUTO 27007KT 10SM CLR 06/00 A2998 RMK AO2
KBQK 130615Z AUTO 27007KT 10SM CLR 06/00 A2998 RMK AO2
KBQK 130555Z AUTO 25006KT 10SM CLR 06/00 A2998 RMK AO2
KBQK 130535Z AUTO 25005KT 10SM CLR 05/00 A2997 RMK AO2
KBQK 130515Z AUTO 26004KT 10SM CLR 06/00 A2998 RMK AO2
KBQK 130455Z AUTO 27005KT 10SM CLR 07/00 A2998 RMK AO2
KBQK 130435Z AUTO 28005KT 10SM CLR 07/00 A2998 RMK AO2
KBQK 130415Z AUTO 27005KT 10SM CLR 08/00 A2998 RMK AO2
KBQK 130355Z AUTO 27006KT 10SM CLR 08/00 A2998 RMK AO2
KBQK 130335Z AUTO 28006KT 10SM CLR 08/00 A2998 RMK AO2
KBQK 130315Z AUTO 29005KT 10SM CLR 08/00 A2997 RMK AO2
KBQK 130255Z AUTO 29006KT 10SM CLR 09/00 A2997 RMK AO2
KBQK 130235Z AUTO 28007G14KT 10SM CLR 10/00 A2997 RMK AO2
KBQK 130215Z AUTO 29007KT 10SM CLR 10/00 A2996 RMK AO2
KBQK 130155Z AUTO 29009G14KT 10SM CLR 10/00 A2995 RMK AO2
KBQK 130135Z AUTO 28008KT 10SM CLR 10/00 A2994 RMK AO2
KBQK 130055Z AUTO 27006KT 10SM CLR 11/01 A2992 RMK AO2
KBQK 130035Z AUTO 27007KT 10SM CLR 11/00 A2992 RMK AO2
KBQK 130015Z AUTO 28005KT 10SM CLR 11/00 A2991 RMK AO2
KBQK 122355Z AUTO 27007KT 10SM CLR 12/00 A2991 RMK AO2
KBQK 122335Z AUTO 27007KT 10SM CLR 12/01 A2990 RMK AO2
KBQK 122315Z AUTO 27006KT 10SM CLR 12/01 A2989 RMK AO2
KBQK 122255Z AUTO 29006KT 10SM CLR 13/01 A2988 RMK AO2
KBQK 122235Z AUTO 28009G15KT 10SM CLR 14/00 A2987 RMK AO2
KBQK 122215Z AUTO 29011KT 10SM CLR 15/01 A2986 RMK AO2
KBQK 122155Z AUTO 28010G22KT 10SM CLR 15/02 A2985 RMK AO2
KBQK 122135Z AUTO 27008G18KT 10SM CLR 16/02 A2984 RMK AO2
KBQK 122115Z AUTO 28012G21KT 10SM CLR 16/01 A2983 RMK AO2 LTG DSNT E
KBQK 122055Z AUTO 26015G21KT 10SM CLR 17/02 A2982 RMK AO2 LTG DSNT E
KBQK 122035Z AUTO 27017G27KT 10SM CLR 17/02 A2982 RMK AO2
KBQK 122015Z AUTO 27016G23KT 10SM CLR 17/02 A2981 RMK AO2
KBQK 121955Z AUTO 26011G24KT 10SM CLR 17/03 A2980 RMK AO2
KBQK 121935Z AUTO 29018G25KT 10SM CLR 18/03 A2980 RMK AO2
KBQK 121915Z AUTO 25018G25KT 10SM CLR 18/05 A2980 RMK AO2
KBQK 121855Z AUTO 27017G26KT 10SM CLR 18/05 A2981 RMK AO2
KBQK 121835Z AUTO 26016G27KT 10SM CLR 18/06 A2981 RMK AO2
KBQK 121815Z AUTO 27011G21KT 10SM CLR 20/06 A2981 RMK AO2
KBQK 121755Z AUTO 26013G20KT 10SM CLR 19/06 A2980 RMK AO2
KBQK 121735Z AUTO 24013G19KT 10SM CLR 18/07 A2980 RMK AO2
KBQK 121715Z AUTO 25013G20KT 230V290 10SM CLR 18/06 A2983 RMK AO2
KBQK 121655Z AUTO 24011G18KT 10SM CLR 18/07 A2983 RMK AO2
KBQK 121635Z AUTO 24010G18KT 10SM CLR 17/07 A2985 RMK AO2
KBQK 121615Z AUTO 24010KT 10SM CLR 16/07 A2988 RMK AO2
KBQK 121555Z AUTO 23012G16KT 10SM CLR 16/07 A2988 RMK AO2
KBQK 121535Z AUTO 24013G19KT 10SM CLR 15/07 A2990 RMK AO2
KBQK 121515Z AUTO 23014G17KT 10SM CLR 15/07 A2991 RMK AO2
KBQK 121455Z AUTO 23010KT 10SM CLR 13/07 A2992 RMK AO2
KBQK 121435Z AUTO 23013G17KT 10SM CLR 13/07 A2993 RMK AO2